Time;durP1;ratioP1;P1;durP2;ratioP2;P2;SDS_P1;SDS_P2;PMS_P1;PMS_P2;Temp;Humidity;BMP_temperature;BMP_pressure;BME280_temperature;BME280_humidity;BME280_pressure;Samples;Min_cycle;Max_cycle;Signal;HPM_P1;HPM_P2
2022/10/12 00:01:18;;;;;;;21.02;9.07;;;;;;;14.18;nan;-24212.59;5091738;28;20530;-74
2022/10/12 00:03:43;;;;;;;17.98;9.73;;;;;;;14.59;nan;-24224.09;5090202;28;20189;-73
2022/10/12 00:06:11;;;;;;;17.90;9.70;;;;;;;14.71;nan;-24227.31;5092157;28;20626;-73
2022/10/12 00:08:38;;;;;;;21.17;9.93;;;;;;;14.33;nan;-24216.81;5091357;28;20166;-73
2022/10/12 00:11:05;;;;;;;19.55;10.90;;;;;;;14.35;nan;-24217.34;5091532;28;21024;-73
2022/10/12 00:13:31;;;;;;;22.65;11.95;;;;;;;14.35;nan;-24217.50;5091258;28;20219;-73
2022/10/12 00:15:56;;;;;;;19.92;10.68;;;;;;;14.63;nan;-24225.22;5094816;28;20628;-74
2022/10/12 00:18:22;;;;;;;18.63;10.52;;;;;;;14.53;nan;-24222.41;5095416;28;20166;-73
2022/10/12 00:20:47;;;;;;;21.67;10.18;;;;;;;13.78;nan;-24201.63;5095429;28;20218;-73
2022/10/12 00:23:13;;;;;;;21.20;10.10;;;;;;;14.31;nan;-24216.22;5094802;28;20224;-74
2022/10/12 00:25:40;;;;;;;19.92;10.15;;;;;;;14.26;nan;-24214.97;5095269;28;20563;-74
2022/10/12 00:28:07;;;;;;;22.27;10.35;;;;;;;14.48;nan;-24221.00;5094674;28;20275;-73
2022/10/12 00:30:33;;;;;;;16.77;9.45;;;;;;;14.40;nan;-24218.91;5095453;28;20633;-73
2022/10/12 00:32:59;;;;;;;17.08;9.25;;;;;;;14.38;nan;-24218.22;5095221;28;20178;-73
2022/10/12 00:35:28;;;;;;;19.27;9.85;;;;;;;14.57;nan;-24223.53;5095243;28;20587;-73
2022/10/12 00:37:54;;;;;;;19.33;10.65;;;;;;;14.61;nan;-24224.66;5094950;28;20180;-73
2022/10/12 00:40:20;;;;;;;20.30;8.82;;;;;;;14.38;nan;-24218.22;5076759;28;20184;-73
2022/10/12 00:42:47;;;;;;;17.67;8.95;;;;;;;14.26;nan;-24214.84;5094671;28;20173;-73
2022/10/12 00:45:14;;;;;;;20.42;9.73;;;;;;;14.28;nan;-24215.41;5094919;28;20250;-73
2022/10/12 00:47:42;;;;;;;17.85;9.40;;;;;;;14.43;nan;-24219.59;5094673;28;20208;-73
2022/10/12 00:50:07;;;;;;;18.30;9.98;;;;;;;14.63;nan;-24225.22;5094967;28;20663;-72
2022/10/12 00:52:50;;;;;;;18.45;9.38;;;;;;;14.59;nan;-24224.22;5094942;28;20256;-72
2022/10/12 00:55:20;;;;;;;19.45;9.75;;;;;;;14.61;nan;-24224.50;5094964;28;20267;-74
2022/10/12 00:57:48;;;;;;;20.48;10.43;;;;;;;14.32;nan;-24216.50;5094627;28;20169;-72
2022/10/12 01:00:14;;;;;;;19.85;10.50;;;;;;;14.49;nan;-24221.44;5094644;28;20254;-73
2022/10/12 01:02:42;;;;;;;17.63;9.05;;;;;;;14.18;nan;-24212.59;5094822;28;20165;-73
2022/10/12 01:05:10;;;;;;;22.17;10.23;;;;;;;14.05;nan;-24209.09;5092787;28;20211;-72
2022/10/12 01:07:36;;;;;;;23.55;10.27;;;;;;;14.16;nan;-24212.31;5093728;28;20220;-72
2022/10/12 01:10:03;;;;;;;26.63;10.23;;;;;;;14.49;nan;-24221.44;5094047;28;20212;-74
2022/10/12 01:12:28;;;;;;;18.25;9.45;;;;;;;14.44;nan;-24219.88;5093910;28;20173;-73
2022/10/12 01:14:54;;;;;;;19.38;10.00;;;;;;;14.26;nan;-24214.84;5094375;28;20241;-72
2022/10/12 01:17:43;;;;;;;19.15;10.02;;;;;;;14.53;nan;-24222.41;5093765;28;20177;-73
2022/10/12 01:20:29;;;;;;;19.58;9.90;;;;;;;14.44;nan;-24219.88;5093698;28;20176;-73
2022/10/12 01:23:19;;;;;;;21.48;9.88;;;;;;;14.55;nan;-24223.13;5093739;28;20252;-73
2022/10/12 01:26:08;;;;;;;19.23;9.73;;;;;;;14.54;nan;-24222.69;5093479;28;20201;-72
2022/10/12 01:29:12;;;;;;;23.70;10.13;;;;;;;14.48;nan;-24221.16;5093681;28;20212;-73
2022/10/12 01:31:45;;;;;;;19.35;9.20;;;;;;;14.50;nan;-24221.56;5077667;28;20268;-72
2022/10/12 01:34:42;;;;;;;20.80;10.10;;;;;;;14.52;nan;-24222.13;5093546;28;20162;-73
2022/10/12 01:37:19;;;;;;;17.27;9.75;;;;;;;14.53;nan;-24222.56;5093662;28;20260;-72
2022/10/12 01:39:52;;;;;;;20.20;9.40;;;;;;;14.51;nan;-24221.84;5094353;28;20198;-73
2022/10/12 01:42:34;;;;;;;20.13;9.10;;;;;;;14.53;nan;-24222.41;5093627;28;20161;-73
2022/10/12 01:45:06;;;;;;;22.08;9.63;;;;;;;14.21;nan;-24213.56;5093939;28;20176;-73
2022/10/12 01:47:32;;;;;;;17.27;9.98;;;;;;;14.27;nan;-24215.13;5093503;28;20700;-72
2022/10/12 01:50:00;;;;;;;17.50;9.40;;;;;;;14.47;nan;-24220.72;5093786;28;20170;-72
2022/10/12 01:52:45;;;;;;;21.42;10.73;;;;;;;14.05;nan;-24209.22;5093662;28;20203;-73
2022/10/12 01:55:25;;;;;;;21.90;10.38;;;;;;;14.09;nan;-24210.34;5075149;28;20593;-73
2022/10/12 01:58:30;;;;;;;16.75;7.90;;;;;;;14.28;nan;-24215.41;5093569;28;20201;-73
2022/10/12 02:01:06;;;;;;;16.33;8.05;;;;;;;14.35;nan;-24217.50;5092932;28;20718;-74
2022/10/12 02:03:45;;;;;;;14.40;7.65;;;;;;;14.38;nan;-24218.22;5093370;28;20184;-73
2022/10/12 02:06:18;;;;;;;12.07;6.85;;;;;;;14.39;nan;-24218.63;5094009;28;20181;-72
2022/10/12 02:08:52;;;;;;;14.63;7.10;;;;;;;14.40;nan;-24218.91;5075184;28;20690;-73
2022/10/12 02:11:20;;;;;;;12.68;6.43;;;;;;;14.35;nan;-24217.34;5075344;28;20597;-73
2022/10/12 02:13:51;;;;;;;11.60;6.28;;;;;;;14.37;nan;-24218.06;5093150;28;20165;-73
2022/10/12 02:16:19;;;;;;;8.30;4.97;;;;;;;14.05;nan;-24209.22;5093107;28;20162;-73
2022/10/12 02:18:49;;;;;;;11.68;5.75;;;;;;;14.10;nan;-24210.63;5092927;28;20576;-74
2022/10/12 02:21:19;;;;;;;11.38;5.45;;;;;;;14.15;nan;-24212.03;5093483;28;20185;-74
2022/10/12 02:23:49;;;;;;;10.85;4.72;;;;;;;14.42;nan;-24219.31;5093144;28;20278;-74
2022/10/12 02:26:16;;;;;;;10.82;4.97;;;;;;;14.35;nan;-24217.50;5092283;28;20204;-73
2022/10/12 02:28:43;;;;;;;12.50;5.97;;;;;;;14.25;nan;-24214.69;5092847;28;20268;-72
2022/10/12 02:31:22;;;;;;;9.10;5.10;;;;;;;14.29;nan;-24215.69;5074485;28;20636;-72
2022/10/12 02:33:54;;;;;;;10.75;5.43;;;;;;;14.40;nan;-24218.75;5093120;28;20243;-72
2022/10/12 02:36:31;;;;;;;9.18;5.43;;;;;;;14.27;nan;-24215.25;5092669;28;20169;-73
2022/10/12 02:39:15;;;;;;;9.02;5.13;;;;;;;14.44;nan;-24219.88;5092310;28;20157;-73
2022/10/12 02:41:46;;;;;;;9.27;4.25;;;;;;;14.30;nan;-24216.09;5092719;28;20207;-72
2022/10/12 02:44:15;;;;;;;7.13;3.83;;;;;;;14.10;nan;-24210.63;5092463;28;20162;-72
2022/10/12 02:46:43;;;;;;;6.45;3.97;;;;;;;14.43;nan;-24219.59;5074170;28;20259;-72
2022/10/12 02:49:10;;;;;;;6.32;3.55;;;;;;;14.46;nan;-24220.44;5091821;28;20633;-73
2022/10/12 02:51:38;;;;;;;6.40;3.60;;;;;;;14.46;nan;-24220.59;5091979;28;20197;-73
2022/10/12 02:54:03;;;;;;;6.15;3.90;;;;;;;14.66;nan;-24225.91;5092683;28;20182;-73
2022/10/12 02:56:29;;;;;;;9.27;5.20;;;;;;;14.28;nan;-24215.41;5092284;28;20181;-73
2022/10/12 02:58:54;;;;;;;6.60;4.00;;;;;;;14.26;nan;-24214.84;5092118;28;20173;-73
2022/10/12 03:01:20;;;;;;;7.93;4.50;;;;;;;14.51;nan;-24222.00;5092734;28;20192;-74
2022/10/12 03:03:45;;;;;;;7.65;3.88;;;;;;;14.23;nan;-24214.13;5092096;28;20215;-73
2022/10/12 03:06:11;;;;;;;7.43;3.45;;;;;;;14.41;nan;-24219.03;5092298;28;20177;-73
2022/10/12 03:08:37;;;;;;;6.93;3.63;;;;;;;14.76;nan;-24228.84;5092435;28;20169;-73
2022/10/12 03:11:04;;;;;;;3.90;2.70;;;;;;;14.73;nan;-24228.03;5092452;28;20323;-73
2022/10/12 03:13:30;;;;;;;7.85;3.22;;;;;;;14.66;nan;-24226.06;5092220;28;20201;-72
2022/10/12 03:16:07;;;;;;;5.45;3.20;;;;;;;14.54;nan;-24222.84;5091995;28;20659;-72
2022/10/12 03:18:33;;;;;;;4.45;3.40;;;;;;;14.54;nan;-24222.69;5091882;28;20248;-73
2022/10/12 03:20:59;;;;;;;7.78;3.00;;;;;;;14.39;nan;-24218.63;5092027;28;20640;-73
2022/10/12 03:23:25;;;;;;;5.68;3.15;;;;;;;14.32;nan;-24216.50;5091287;28;20249;-73
2022/10/12 03:25:50;;;;;;;3.35;2.53;;;;;;;14.72;nan;-24227.59;5091786;28;20173;-72
2022/10/12 03:28:16;;;;;;;3.72;2.47;;;;;;;14.67;nan;-24226.19;5082909;28;20270;-73
2022/10/12 03:30:42;;;;;;;4.50;2.70;;;;;;;14.56;nan;-24223.41;5077320;28;20262;-72
2022/10/12 03:33:08;;;;;;;4.70;2.60;;;;;;;14.63;nan;-24225.22;5077860;28;20196;-74
2022/10/12 03:35:34;;;;;;;4.78;2.53;;;;;;;14.38;nan;-24218.22;5074689;28;20182;-73
2022/10/12 03:37:59;;;;;;;3.90;2.65;;;;;;;14.02;nan;-24208.25;5076139;28;20178;-72
2022/10/12 03:40:25;;;;;;;4.53;2.92;;;;;;;14.05;nan;-24209.22;5076734;28;20671;-74
2022/10/12 03:42:50;;;;;;;3.28;2.50;;;;;;;14.41;nan;-24219.19;5082629;28;20170;-73
2022/10/12 03:45:16;;;;;;;4.15;2.78;;;;;;;14.25;nan;-24214.56;5076675;28;20648;-73
2022/10/12 03:47:41;;;;;;;3.30;2.45;;;;;;;14.07;nan;-24209.78;5076263;28;20904;-73
2022/10/12 03:50:07;;;;;;;5.72;2.53;;;;;;;14.13;nan;-24211.47;5078509;28;20177;-73
2022/10/12 03:52:33;;;;;;;4.13;2.63;;;;;;;14.00;nan;-24207.69;5075631;28;20170;-72
2022/10/12 03:54:58;;;;;;;3.90;2.85;;;;;;;14.22;nan;-24213.72;5075125;28;20185;-74
2022/10/12 03:57:23;;;;;;;4.70;2.70;;;;;;;14.23;nan;-24214.00;5075309;28;20636;-74
2022/10/12 03:59:49;;;;;;;3.78;2.90;;;;;;;14.21;nan;-24213.56;5076643;28;20684;-74
2022/10/12 04:02:14;;;;;;;4.20;2.33;;;;;;;14.19;nan;-24212.88;5077118;28;20223;-73
2022/10/12 04:04:40;;;;;;;3.30;2.38;;;;;;;14.15;nan;-24212.03;5075804;28;20208;-73
2022/10/12 04:07:06;;;;;;;3.60;2.20;;;;;;;13.98;nan;-24207.25;5076462;28;20185;-73
2022/10/12 04:09:31;;;;;;;5.13;2.50;;;;;;;14.36;nan;-24217.78;5076654;28;20574;-73
2022/10/12 04:11:57;;;;;;;4.90;2.58;;;;;;;14.27;nan;-24215.13;5076381;28;20196;-74
2022/10/12 04:14:22;;;;;;;4.68;2.50;;;;;;;14.00;nan;-24207.81;5077159;28;20196;-74
2022/10/12 04:16:47;;;;;;;3.67;2.25;;;;;;;14.28;nan;-24215.41;5098314;28;20272;-74
2022/10/12 04:19:13;;;;;;;2.75;2.00;;;;;;;13.82;nan;-24202.63;5086374;28;20616;-74
2022/10/12 04:21:39;;;;;;;3.45;2.30;;;;;;;14.25;nan;-24214.69;5095679;28;20618;-73
2022/10/12 04:24:05;;;;;;;4.22;2.20;;;;;;;13.92;nan;-24205.56;5094725;28;20243;-73
2022/10/12 04:26:30;;;;;;;4.00;2.72;;;;;;;12.84;nan;-24175.50;5090716;28;20204;-73
2022/10/12 04:28:56;;;;;;;3.28;2.30;;;;;;;14.35;nan;-24217.34;5085255;28;20196;-73
2022/10/12 04:31:21;;;;;;;3.45;2.42;;;;;;;14.30;nan;-24215.94;5094055;28;20564;-74
2022/10/12 04:33:47;;;;;;;2.80;2.33;;;;;;;14.52;nan;-24222.13;5090911;28;20548;-74
2022/10/12 04:36:12;;;;;;;3.45;2.20;;;;;;;14.44;nan;-24219.88;5089706;28;20181;-74
2022/10/12 04:38:38;;;;;;;3.20;2.40;;;;;;;14.48;nan;-24221.16;5090295;28;20177;-72
2022/10/12 04:41:03;;;;;;;4.70;2.95;;;;;;;14.42;nan;-24219.31;5090812;28;20606;-72
2022/10/12 04:43:28;;;;;;;12.60;3.17;;;;;;;14.15;nan;-24212.03;5090794;28;20166;-73
2022/10/12 04:45:56;;;;;;;3.88;2.45;;;;;;;14.27;nan;-24215.13;5072287;28;20183;-74
2022/10/12 04:48:22;;;;;;;3.63;2.50;;;;;;;14.40;nan;-24218.75;5090302;28;20291;-73
2022/10/12 04:50:47;;;;;;;5.68;2.60;;;;;;;14.64;nan;-24225.50;5090130;28;20178;-74
2022/10/12 04:53:13;;;;;;;4.75;2.78;;;;;;;14.47;nan;-24220.72;5072379;28;20177;-76
2022/10/12 04:55:38;;;;;;;4.60;2.70;;;;;;;13.09;nan;-24182.41;5072278;28;20178;-76
2022/10/12 04:58:04;;;;;;;4.15;2.70;;;;;;;14.03;nan;-24208.66;5072452;28;20181;-75
2022/10/12 05:00:29;;;;;;;4.13;2.92;;;;;;;14.60;nan;-24224.38;5091790;28;20188;-76
2022/10/12 05:02:54;;;;;;;4.70;2.97;;;;;;;14.26;nan;-24214.84;5076134;28;20165;-75
2022/10/12 05:05:20;;;;;;;4.47;2.67;;;;;;;14.88;nan;-24232.22;5094457;28;20181;-74
2022/10/12 05:07:45;;;;;;;3.50;2.42;;;;;;;14.57;nan;-24223.66;5094276;28;20201;-74
2022/10/12 05:10:11;;;;;;;3.42;2.30;;;;;;;14.07;nan;-24209.63;5093305;28;20169;-75
2022/10/12 05:12:36;;;;;;;6.43;2.40;;;;;;;10.27;nan;-24103.94;5093680;28;20176;-74
2022/10/12 05:15:02;;;;;;;6.15;3.08;;;;;;;14.80;nan;-24229.84;5093915;28;20222;-74
2022/10/12 05:17:27;;;;;;;3.40;2.78;;;;;;;14.35;nan;-24217.34;5094261;28;20584;-73
2022/10/12 05:19:52;;;;;;;5.43;2.92;;;;;;;14.69;nan;-24226.91;5094461;28;20264;-73
2022/10/12 05:22:18;;;;;;;6.35;3.20;;;;;;;14.68;nan;-24226.63;5094477;28;20362;-73
2022/10/12 05:24:43;;;;;;;3.72;2.70;;;;;;;14.74;nan;-24228.31;5075879;28;20683;-73
2022/10/12 05:27:09;;;;;;;5.45;3.00;;;;;;;14.77;nan;-24229.13;5075813;28;20197;-59
2022/10/12 05:29:34;;;;;;;5.53;3.13;;;;;;;14.50;nan;-24221.56;5094627;28;20200;-59
2022/10/12 05:32:00;;;;;;;7.53;3.53;;;;;;;;;;5094393;28;20170;-61
2022/10/12 05:34:25;;;;;;;7.47;3.63;;;;;;;14.71;nan;-24227.31;5094276;28;20275;-59
2022/10/12 05:36:50;;;;;;;5.45;3.60;;;;;;;14.76;nan;-24228.84;5093875;28;20188;-59
2022/10/12 05:39:16;;;;;;;4.85;3.05;;;;;;;14.62;nan;-24224.78;5094514;28;20173;-58
2022/10/12 05:41:41;;;;;;;4.55;3.00;;;;;;;14.80;nan;-24229.84;5094030;28;20248;-60
2022/10/12 05:44:07;;;;;;;7.20;3.90;;;;;;;14.78;nan;-24229.41;5093812;28;20254;-60
2022/10/12 05:46:32;;;;;;;7.15;3.50;;;;;;;14.55;nan;-24222.97;5093731;28;20616;-59
2022/10/12 05:48:58;;;;;;;8.00;4.28;;;;;;;14.59;nan;-24224.09;5093558;28;20554;-59
2022/10/12 05:51:23;;;;;;;4.55;3.30;;;;;;;14.66;nan;-24225.91;5093286;28;20181;-58
2022/10/12 05:53:48;;;;;;;5.60;3.53;;;;;;;14.49;nan;-24221.28;5093678;28;20238;-60
2022/10/12 05:56:14;;;;;;;6.40;4.05;;;;;;;14.90;nan;-24232.78;5093605;28;20181;-59
2022/10/12 05:58:39;;;;;;;5.13;3.08;;;;;;;14.56;nan;-24223.25;5093559;28;20169;-59
2022/10/12 06:01:07;;;;;;;7.82;3.45;;;;;;;14.81;nan;-24230.13;5093174;28;20246;-60
2022/10/12 06:03:32;;;;;;;7.75;4.03;;;;;;;11.67;nan;-24143.00;5093388;28;20178;-59
2022/10/12 06:05:58;;;;;;;4.65;3.20;;;;;;;14.72;nan;-24227.75;5093149;28;20231;-61
2022/10/12 06:08:23;;;;;;;6.38;3.28;;;;;;;15.14;nan;-24239.38;5093319;28;20262;-59
2022/10/12 06:10:50;;;;;;;5.55;3.83;;;;;;;14.88;nan;-24232.22;5093480;28;20647;-60
2022/10/12 06:13:16;;;;;;;5.85;3.47;;;;;;;15.28;nan;-24243.28;5092550;28;20173;-60
2022/10/12 06:15:44;;;;;;;7.95;3.83;;;;;;;14.93;nan;-24233.50;5074827;28;20169;-59
2022/10/12 06:18:10;;;;;;;5.47;3.08;;;;;;;15.44;nan;-24247.63;5093256;28;20181;-58
2022/10/12 06:20:36;;;;;;;5.20;3.10;;;;;;;15.57;nan;-24251.13;5093117;28;20173;-58
2022/10/12 06:23:01;;;;;;;4.25;3.10;;;;;;;15.38;nan;-24245.94;5093189;28;20253;-59
2022/10/12 06:25:27;;;;;;;7.57;3.78;;;;;;;15.73;nan;-24255.63;5093128;28;20522;-61
2022/10/12 06:27:52;;;;;;;5.32;3.15;;;;;;;15.87;nan;-24259.53;5092906;28;20193;-61
2022/10/12 06:30:17;;;;;;;4.15;3.38;;;;;;;15.98;nan;-24262.59;5093160;28;20169;-59
2022/10/12 06:32:43;;;;;;;5.45;2.90;;;;;;;16.07;nan;-24265.00;5093101;28;20169;-60
2022/10/12 06:35:08;;;;;;;6.13;4.05;;;;;;;16.23;nan;-24269.47;5093352;28;20184;-60
2022/10/12 06:37:34;;;;;;;6.43;3.75;;;;;;;16.28;nan;-24271.00;5093221;28;20594;-58
2022/10/12 06:39:59;;;;;;;3.65;2.90;;;;;;;15.48;nan;-24248.91;5092837;28;20185;-59
2022/10/12 06:42:24;;;;;;;4.95;2.75;;;;;;;16.08;nan;-24265.41;5092840;28;20178;-60
2022/10/12 06:44:50;;;;;;;5.20;3.42;;;;;;;16.26;nan;-24270.44;5092559;28;20722;-60
2022/10/12 06:47:15;;;;;;;4.45;3.30;;;;;;;16.07;nan;-24265.13;5092426;28;20220;-59
2022/10/12 06:49:41;;;;;;;5.30;3.40;;;;;;;16.29;nan;-24271.28;5092425;28;20549;-60
2022/10/12 06:52:06;;;;;;;6.63;3.85;;;;;;;16.10;nan;-24265.97;5092791;28;20250;-61
2022/10/12 06:54:31;;;;;;;6.55;3.90;;;;;;;16.37;nan;-24273.25;5092521;28;20230;-59
2022/10/12 06:56:57;;;;;;;4.28;3.30;;;;;;;16.14;nan;-24267.09;5091983;28;20260;-60
2022/10/12 06:59:22;;;;;;;8.68;3.63;;;;;;;16.12;nan;-24266.53;5092356;28;20195;-59
2022/10/12 07:01:48;;;;;;;4.18;3.22;;;;;;;16.27;nan;-24270.59;5092374;28;20211;-61
2022/10/12 07:04:14;;;;;;;5.25;3.40;;;;;;;16.19;nan;-24268.47;5092615;28;20233;-59
2022/10/12 07:06:40;;;;;;;5.35;3.00;;;;;;;16.24;nan;-24269.88;5092476;28;20242;-59
2022/10/12 07:09:05;;;;;;;4.35;2.90;;;;;;;16.05;nan;-24264.44;5074637;28;20181;-59
2022/10/12 07:11:31;;;;;;;4.22;3.08;;;;;;;16.39;nan;-24273.94;5092075;28;20190;-60
2022/10/12 07:13:57;;;;;;;5.00;3.03;;;;;;;16.49;nan;-24276.72;5092289;28;20189;-60
2022/10/12 07:16:22;;;;;;;4.00;2.63;;;;;;;16.34;nan;-24272.69;5092154;28;20207;-60
2022/10/12 07:18:48;;;;;;;3.95;2.67;;;;;;;16.61;nan;-24280.09;5091959;28;20551;-59
2022/10/12 07:21:13;;;;;;;2.60;2.17;;;;;;;16.71;nan;-24282.88;5092100;28;20172;-59
2022/10/12 07:23:39;;;;;;;2.90;2.47;;;;;;;16.83;nan;-24285.97;5091928;28;20213;-59
2022/10/12 07:26:05;;;;;;;3.00;2.00;;;;;;;16.83;nan;-24286.09;5091882;28;20176;-59
2022/10/12 07:28:33;;;;;;;4.82;2.78;;;;;;;16.69;nan;-24282.19;5091277;28;20209;-59
2022/10/12 07:31:11;;;;;;;6.05;2.65;;;;;;;16.82;nan;-24285.81;5091996;28;20174;-58
2022/10/12 07:33:37;;;;;;;4.40;2.65;;;;;;;16.96;nan;-24289.72;5091818;28;20544;-60
2022/10/12 07:36:04;;;;;;;4.07;1.80;;;;;;;16.99;nan;-24290.44;5091668;28;20632;-60
2022/10/12 07:38:29;;;;;;;3.42;2.17;;;;;;;17.11;nan;-24293.78;5091779;28;20170;-60
2022/10/12 07:40:58;;;;;;;2.88;2.28;;;;;;;17.49;nan;-24304.38;5091643;28;20620;-58
2022/10/12 07:43:23;;;;;;;5.40;2.83;;;;;;;17.79;nan;-24312.63;5073051;28;20174;-60
2022/10/12 07:45:48;;;;;;;4.40;2.45;;;;;;;18.07;nan;-24320.44;5091629;28;20176;-60
2022/10/12 07:48:14;;;;;;;3.75;1.95;;;;;;;17.78;nan;-24312.34;5091452;28;20292;-59
2022/10/12 07:50:39;;;;;;;2.95;2.20;;;;;;;17.94;nan;-24316.66;5091176;28;20165;-60
2022/10/12 07:53:04;;;;;;;4.13;2.25;;;;;;;18.23;nan;-24324.59;5091380;28;20188;-60
2022/10/12 07:55:30;;;;;;;3.50;2.30;;;;;;;18.15;nan;-24322.53;5090895;28;20648;-60
2022/10/12 07:57:58;;;;;;;3.05;2.17;;;;;;;18.46;nan;-24331.16;5091406;28;20223;-61
2022/10/12 08:00:23;;;;;;;3.15;1.98;;;;;;;18.79;nan;-24340.06;5091423;28;20528;-61
2022/10/12 08:02:48;;;;;;;3.42;1.77;;;;;;;18.68;nan;-24337.00;5091214;28;20198;-59
2022/10/12 08:05:14;;;;;;;2.80;1.85;;;;;;;19.06;nan;-24347.44;5091026;28;20709;-58
2022/10/12 08:07:39;;;;;;;3.67;2.40;;;;;;;19.42;nan;-24357.59;5091563;28;20223;-59
2022/10/12 08:10:05;;;;;;;2.05;1.80;;;;;;;19.57;nan;-24361.66;5089546;28;20527;-59
2022/10/12 08:12:30;;;;;;;2.95;1.95;;;;;;;19.62;nan;-24363.03;5090935;28;20257;-59
2022/10/12 08:14:56;;;;;;;2.35;1.85;;;;;;;19.26;nan;-24353.00;5090623;28;20181;-59
2022/10/12 08:17:21;;;;;;;2.85;1.85;;;;;;;19.53;nan;-24360.53;5091193;28;20494;-59
2022/10/12 08:19:46;;;;;;;3.97;2.10;;;;;;;19.69;nan;-24364.97;5091193;28;20181;-59
2022/10/12 08:22:12;;;;;;;2.50;1.65;;;;;;;19.81;nan;-24368.19;5090734;28;20158;-60
2022/10/12 08:24:37;;;;;;;3.63;1.90;;;;;;;19.67;nan;-24364.44;5090953;28;20158;-59
2022/10/12 08:27:03;;;;;;;2.80;1.77;;;;;;;20.16;nan;-24377.91;5090610;28;20300;-59
2022/10/12 08:29:28;;;;;;;4.43;2.03;;;;;;;19.90;nan;-24370.69;5091460;28;20324;-59
2022/10/12 08:31:54;;;;;;;3.38;1.85;;;;;;;19.78;nan;-24367.34;5091149;28;20368;-58
2022/10/12 08:34:19;;;;;;;1.90;1.70;;;;;;;15.41;nan;-24246.94;5091239;28;20169;-60
2022/10/12 08:36:44;;;;;;;2.30;1.70;;;;;;;19.19;nan;-24351.22;5094158;28;20177;-59
2022/10/12 08:39:10;;;;;;;3.63;2.05;;;;;;;19.87;nan;-24369.72;5094317;28;20697;-60
2022/10/12 08:41:53;;;;;;;2.35;1.70;;;;;;;20.29;nan;-24381.50;5093563;28;20306;-59
2022/10/12 08:44:54;;;;;;;3.13;1.92;;;;;;;20.49;nan;-24386.94;5094771;28;20177;-59
2022/10/12 08:47:45;;;;;;;5.50;2.00;;;;;;;20.60;nan;-24389.84;4993037;28;20254;-59
2022/10/12 08:50:20;;;;;;;2.80;1.80;;;;;;;20.60;nan;-24389.84;5083380;28;20665;-60
2022/10/12 08:53:00;;;;;;;2.33;1.52;;;;;;;20.89;nan;-24397.75;5095081;28;20510;-60
2022/10/12 08:55:38;;;;;;;2.72;1.83;;;;;;;20.58;nan;-24389.28;5094817;28;20166;-60
2022/10/12 08:58:13;;;;;;;2.22;1.65;;;;;;;20.59;nan;-24389.56;5094742;28;20313;-60
2022/10/12 09:00:39;;;;;;;2.70;1.92;;;;;;;20.80;nan;-24395.25;5094895;28;20177;-59
2022/10/12 09:03:35;;;;;;;2.95;2.03;;;;;;;20.47;nan;-24386.25;5095026;28;20590;-59
2022/10/12 09:06:13;;;;;;;3.03;1.95;;;;;;;20.90;nan;-24398.16;5094984;28;20256;-61
2022/10/12 09:08:50;;;;;;;2.78;1.90;;;;;;;21.39;nan;-24411.63;5094572;28;20276;-59
2022/10/12 09:11:24;;;;;;;3.85;2.00;;;;;;;21.55;nan;-24415.91;5094928;28;20165;-59
2022/10/12 09:14:10;;;;;;;2.90;1.80;;;;;;;21.73;nan;-24420.91;5094372;28;20599;-60
2022/10/12 09:16:41;;;;;;;1.95;1.60;;;;;;;20.53;nan;-24387.91;5094651;28;20165;-59
2022/10/12 09:19:16;;;;;;;2.17;1.63;;;;;;;21.62;nan;-24417.72;5094508;28;20528;-60
2022/10/12 09:21:43;;;;;;;1.92;1.70;;;;;;;21.62;nan;-24417.84;5094535;28;20265;-59
2022/10/12 09:24:21;;;;;;;2.35;1.98;;;;;;;18.27;nan;-24325.72;5094521;28;20594;-60
2022/10/12 09:26:50;;;;;;;4.30;2.58;;;;;;;21.81;nan;-24423.13;5094211;28;20238;-58
2022/10/12 09:29:27;;;;;;;4.93;2.25;;;;;;;21.86;nan;-24424.50;5094218;28;20724;-60
2022/10/12 09:32:14;;;;;;;2.80;1.90;;;;;;;21.71;nan;-24420.34;5094277;28;20169;-61
2022/10/12 09:34:40;;;;;;;2.10;1.90;;;;;;;17.98;nan;-24317.91;5093968;28;20185;-60
2022/10/12 09:37:10;;;;;;;3.45;2.00;;;;;;;22.08;nan;-24430.31;5094421;28;20176;-59
2022/10/12 09:39:38;;;;;;;3.90;2.33;;;;;;;21.89;nan;-24425.34;5094310;28;20553;-60
2022/10/12 09:42:03;;;;;;;2.53;2.00;;;;;;;21.88;nan;-24424.91;5093893;28;20165;-59
2022/10/12 09:44:45;;;;;;;3.13;2.33;;;;;;;22.12;nan;-24431.44;5094403;28;20548;-59
2022/10/12 09:47:22;;;;;;;4.50;2.58;;;;;;;22.38;nan;-24438.63;5093705;28;20208;-59
2022/10/12 09:49:49;;;;;;;2.58;1.88;;;;;;;22.03;nan;-24429.22;5094036;28;20185;-59
2022/10/12 09:52:19;;;;;;;4.80;2.58;;;;;;;22.19;nan;-24433.38;5093382;28;20627;-59
2022/10/12 09:54:49;;;;;;;6.22;2.55;;;;;;;22.40;nan;-24439.19;5094135;28;20242;-61
2022/10/12 09:57:27;;;;;;;4.50;2.55;;;;;;;22.34;nan;-24437.53;5094092;28;20177;-61
2022/10/12 09:59:53;;;;;;;3.45;2.50;;;;;;;22.20;nan;-24433.78;5093686;28;20222;-59
2022/10/12 10:02:24;;;;;;;3.15;2.50;;;;;;;22.14;nan;-24432.00;5093920;28;20661;-61
2022/10/12 10:04:50;;;;;;;4.20;2.70;;;;;;;22.16;nan;-24432.69;5093985;28;20181;-58
2022/10/12 10:07:29;;;;;;;2.75;2.22;;;;;;;22.31;nan;-24436.84;5093811;28;20712;-59
2022/10/12 10:10:14;;;;;;;4.70;2.65;;;;;;;22.39;nan;-24438.91;5093478;28;20656;-59
2022/10/12 10:12:48;;;;;;;3.28;2.33;;;;;;;22.30;nan;-24436.41;5093464;28;20225;-59
2022/10/12 10:15:28;;;;;;;3.30;2.72;;;;;;;22.65;nan;-24446.09;5093661;28;20174;-60
2022/10/12 10:17:58;;;;;;;5.63;2.47;;;;;;;22.82;nan;-24450.66;5093651;28;20208;-60
2022/10/12 10:20:37;;;;;;;4.28;2.28;;;;;;;22.81;nan;-24450.53;5092979;28;20226;-60
2022/10/12 10:23:04;;;;;;;4.22;2.45;;;;;;;22.76;nan;-24449.00;5093117;28;20567;-60
2022/10/12 10:25:30;;;;;;;3.97;2.30;;;;;;;22.87;nan;-24452.03;5092782;28;20173;-59
2022/10/12 10:28:19;;;;;;;5.07;2.78;;;;;;;22.80;nan;-24450.09;5093130;28;20212;-60
2022/10/12 10:30:55;;;;;;;4.95;2.65;;;;;;;22.58;nan;-24444.03;5093010;28;20725;-59
2022/10/12 10:33:20;;;;;;;3.15;2.55;;;;;;;22.71;nan;-24447.75;5093355;28;20576;-59
2022/10/12 10:36:01;;;;;;;4.82;2.65;;;;;;;22.99;nan;-24455.22;5092842;28;20170;-60
2022/10/12 10:38:30;;;;;;;4.40;2.40;;;;;;;23.01;nan;-24455.78;5092556;28;20268;-60
2022/10/12 10:40:56;;;;;;;3.08;2.55;;;;;;;22.92;nan;-24453.44;5092845;28;20236;-59
2022/10/12 10:43:28;;;;;;;6.05;2.75;;;;;;;23.37;nan;-24465.72;5092606;28;20545;-60
2022/10/12 10:45:57;;;;;;;5.93;3.65;;;;;;;22.77;nan;-24449.41;5092745;28;20641;-59
2022/10/12 10:48:27;;;;;;;3.58;2.35;;;;;;;22.85;nan;-24451.50;5092198;28;20643;-59
2022/10/12 10:51:00;;;;;;;2.78;2.20;;;;;;;22.99;nan;-24455.22;5092703;28;20250;-59
2022/10/12 10:53:30;;;;;;;3.72;2.38;;;;;;;23.05;nan;-24457.03;5092757;28;20174;-60
2022/10/12 10:56:08;;;;;;;3.35;2.33;;;;;;;23.20;nan;-24461.03;5092556;28;20260;-60
2022/10/12 10:58:45;;;;;;;3.13;2.25;;;;;;;23.38;nan;-24466.00;5092101;28;20169;-60
2022/10/12 11:01:14;;;;;;;4.05;2.90;;;;;;;23.59;nan;-24471.81;5092985;28;20204;-58
2022/10/12 11:04:01;;;;;;;4.38;2.40;;;;;;;23.05;nan;-24456.88;5092745;28;20178;-60
2022/10/12 11:06:52;;;;;;;2.65;2.00;;;;;;;23.37;nan;-24465.59;5074055;28;20165;-59
2022/10/12 11:09:23;;;;;;;3.30;2.35;;;;;;;23.48;nan;-24468.78;5074088;28;20263;-60
2022/10/12 11:12:14;;;;;;;7.20;2.83;;;;;;;23.65;nan;-24473.47;5092856;28;20660;-60
2022/10/12 11:14:49;;;;;;;4.28;2.35;;;;;;;23.81;nan;-24477.59;5092584;28;20169;-59
2022/10/12 11:17:39;;;;;;;3.10;2.15;;;;;;;23.51;nan;-24469.59;5092527;28;20203;-59
2022/10/12 11:20:44;;;;;;;4.40;2.40;;;;;;;23.29;nan;-24463.66;5092398;28;20177;-59
2022/10/12 11:23:49;;;;;;;3.97;2.40;;;;;;;23.16;nan;-24459.94;5009077;28;20591;-61
2022/10/12 11:26:18;;;;;;;2.80;2.00;;;;;;;23.27;nan;-24463.09;5077087;28;20193;-60
2022/10/12 11:28:44;;;;;;;4.72;2.80;;;;;;;23.17;nan;-24460.19;5092536;28;20177;-59
2022/10/12 11:31:36;;;;;;;3.75;2.38;;;;;;;22.79;nan;-24449.84;5092164;28;20280;-59
2022/10/12 11:34:05;;;;;;;3.97;2.38;;;;;;;22.22;nan;-24434.19;5091937;28;20735;-60
2022/10/12 11:36:33;;;;;;;3.05;2.20;;;;;;;21.98;nan;-24427.84;5091942;28;20585;-60
2022/10/12 11:39:06;;;;;;;4.28;2.55;;;;;;;21.34;nan;-24410.25;5091616;28;20170;-60
2022/10/12 11:41:46;;;;;;;2.95;1.95;;;;;;;21.55;nan;-24416.06;5089921;28;20169;-60
2022/10/12 11:44:29;;;;;;;3.40;2.53;;;;;;;21.18;nan;-24405.81;5073143;28;20180;-60
2022/10/12 11:47:06;;;;;;;6.00;2.20;;;;;;;21.40;nan;-24411.91;5091080;28;20199;-59
2022/10/12 11:49:54;;;;;;;3.63;2.30;;;;;;;21.64;nan;-24418.41;5091452;28;20234;-60
2022/10/12 11:52:21;;;;;;;4.07;2.45;;;;;;;21.59;nan;-24417.03;5091105;28;20640;-60